sensor_id;sensor_type;location;lat;lon;timestamp;P1;durP1;ratioP1;P2;durP2;ratioP2
11245;SDS011;59870;50.106;8.580;2022-07-19T00:01:06;3.67;;;3.47;;
11245;SDS011;59870;50.106;8.580;2022-07-19T00:03:34;3.67;;;3.37;;
11245;SDS011;59870;50.106;8.580;2022-07-19T00:06:02;6.47;;;3.37;;
11245;SDS011;59870;50.106;8.580;2022-07-19T00:08:29;4.17;;;3.60;;
11245;SDS011;59870;50.106;8.580;2022-07-19T00:10:56;4.17;;;3.77;;
11245;SDS011;59870;50.106;8.580;2022-07-19T00:13:24;4.10;;;3.50;;
11245;SDS011;59870;50.106;8.580;2022-07-19T00:15:51;4.87;;;3.80;;
11245;SDS011;59870;50.106;8.580;2022-07-19T00:18:19;6.17;;;3.80;;
11245;SDS011;59870;50.106;8.580;2022-07-19T00:20:46;4.03;;;3.63;;
11245;SDS011;59870;50.106;8.580;2022-07-19T00:23:14;4.07;;;3.80;;
11245;SDS011;59870;50.106;8.580;2022-07-19T00:25:41;4.27;;;3.20;;
11245;SDS011;59870;50.106;8.580;2022-07-19T00:28:08;4.43;;;3.90;;
11245;SDS011;59870;50.106;8.580;2022-07-19T00:30:36;5.27;;;3.47;;
11245;SDS011;59870;50.106;8.580;2022-07-19T00:33:03;4.17;;;3.63;;
11245;SDS011;59870;50.106;8.580;2022-07-19T00:35:35;4.40;;;3.90;;
11245;SDS011;59870;50.106;8.580;2022-07-19T00:38:10;5.27;;;3.73;;
11245;SDS011;59870;50.106;8.580;2022-07-19T00:40:39;6.57;;;3.47;;
11245;SDS011;59870;50.106;8.580;2022-07-19T00:43:08;5.57;;;3.77;;
11245;SDS011;59870;50.106;8.580;2022-07-19T00:45:37;9.43;;;3.40;;
11245;SDS011;59870;50.106;8.580;2022-07-19T00:48:05;6.07;;;3.83;;
11245;SDS011;59870;50.106;8.580;2022-07-19T00:50:32;4.70;;;3.10;;
11245;SDS011;59870;50.106;8.580;2022-07-19T00:53:00;7.17;;;3.33;;
11245;SDS011;59870;50.106;8.580;2022-07-19T00:55:32;3.10;;;2.83;;
11245;SDS011;59870;50.106;8.580;2022-07-19T00:58:02;5.30;;;3.23;;
11245;SDS011;59870;50.106;8.580;2022-07-19T01:00:31;5.90;;;3.33;;
11245;SDS011;59870;50.106;8.580;2022-07-19T01:03:01;3.63;;;3.33;;
11245;SDS011;59870;50.106;8.580;2022-07-19T01:05:29;7.50;;;3.33;;
11245;SDS011;59870;50.106;8.580;2022-07-19T01:07:56;7.93;;;3.37;;
11245;SDS011;59870;50.106;8.580;2022-07-19T01:10:24;3.97;;;3.60;;
11245;SDS011;59870;50.106;8.580;2022-07-19T01:12:53;8.33;;;3.90;;
11245;SDS011;59870;50.106;8.580;2022-07-19T01:15:22;3.90;;;3.60;;
11245;SDS011;59870;50.106;8.580;2022-07-19T01:17:52;8.03;;;3.57;;
11245;SDS011;59870;50.106;8.580;2022-07-19T01:20:20;4.20;;;3.63;;
11245;SDS011;59870;50.106;8.580;2022-07-19T01:22:56;5.03;;;3.80;;
11245;SDS011;59870;50.106;8.580;2022-07-19T01:25:24;4.03;;;3.73;;
11245;SDS011;59870;50.106;8.580;2022-07-19T01:27:53;10.57;;;4.27;;
11245;SDS011;59870;50.106;8.580;2022-07-19T01:30:23;3.37;;;3.07;;
11245;SDS011;59870;50.106;8.580;2022-07-19T01:32:54;3.20;;;3.00;;
11245;SDS011;59870;50.106;8.580;2022-07-19T01:35:31;6.77;;;3.57;;
11245;SDS011;59870;50.106;8.580;2022-07-19T01:37:59;3.60;;;3.00;;
11245;SDS011;59870;50.106;8.580;2022-07-19T01:40:26;4.30;;;3.53;;
11245;SDS011;59870;50.106;8.580;2022-07-19T01:42:53;5.30;;;4.17;;
11245;SDS011;59870;50.106;8.580;2022-07-19T01:45:21;7.80;;;4.23;;
11245;SDS011;59870;50.106;8.580;2022-07-19T01:47:48;7.67;;;3.57;;
11245;SDS011;59870;50.106;8.580;2022-07-19T01:50:16;3.50;;;3.00;;
11245;SDS011;59870;50.106;8.580;2022-07-19T01:52:44;4.23;;;3.33;;
11245;SDS011;59870;50.106;8.580;2022-07-19T01:55:16;6.53;;;3.13;;
11245;SDS011;59870;50.106;8.580;2022-07-19T01:57:48;3.50;;;3.30;;
11245;SDS011;59870;50.106;8.580;2022-07-19T02:00:16;7.90;;;3.67;;
11245;SDS011;59870;50.106;8.580;2022-07-19T02:02:43;4.03;;;3.70;;
11245;SDS011;59870;50.106;8.580;2022-07-19T02:05:11;3.80;;;3.50;;
11245;SDS011;59870;50.106;8.580;2022-07-19T02:07:39;4.30;;;3.73;;
11245;SDS011;59870;50.106;8.580;2022-07-19T02:10:07;9.13;;;3.40;;
11245;SDS011;59870;50.106;8.580;2022-07-19T02:12:36;4.57;;;3.60;;
11245;SDS011;59870;50.106;8.580;2022-07-19T02:15:04;6.27;;;3.50;;
11245;SDS011;59870;50.106;8.580;2022-07-19T02:17:47;4.13;;;3.70;;
11245;SDS011;59870;50.106;8.580;2022-07-19T02:20:14;6.17;;;3.60;;
11245;SDS011;59870;50.106;8.580;2022-07-19T02:22:42;3.33;;;3.13;;
11245;SDS011;59870;50.106;8.580;2022-07-19T02:25:10;3.60;;;3.30;;
11245;SDS011;59870;50.106;8.580;2022-07-19T02:27:37;4.53;;;3.77;;
11245;SDS011;59870;50.106;8.580;2022-07-19T02:30:05;5.00;;;3.20;;
11245;SDS011;59870;50.106;8.580;2022-07-19T02:32:33;4.83;;;3.07;;
11245;SDS011;59870;50.106;8.580;2022-07-19T02:35:00;4.87;;;3.30;;
11245;SDS011;59870;50.106;8.580;2022-07-19T02:37:28;4.50;;;3.57;;
11245;SDS011;59870;50.106;8.580;2022-07-19T02:39:55;5.90;;;3.13;;
11245;SDS011;59870;50.106;8.580;2022-07-19T02:42:28;3.30;;;3.00;;
11245;SDS011;59870;50.106;8.580;2022-07-19T02:44:56;4.07;;;3.77;;
11245;SDS011;59870;50.106;8.580;2022-07-19T02:47:23;5.00;;;3.03;;
11245;SDS011;59870;50.106;8.580;2022-07-19T02:49:51;5.97;;;3.07;;
11245;SDS011;59870;50.106;8.580;2022-07-19T02:52:18;3.13;;;2.93;;
11245;SDS011;59870;50.106;8.580;2022-07-19T02:54:45;3.17;;;2.90;;
11245;SDS011;59870;50.106;8.580;2022-07-19T02:57:13;4.33;;;2.97;;
11245;SDS011;59870;50.106;8.580;2022-07-19T02:59:40;5.50;;;3.77;;
11245;SDS011;59870;50.106;8.580;2022-07-19T03:02:07;3.27;;;2.97;;
11245;SDS011;59870;50.106;8.580;2022-07-19T03:04:35;4.27;;;3.50;;
11245;SDS011;59870;50.106;8.580;2022-07-19T03:07:02;3.53;;;3.23;;
11245;SDS011;59870;50.106;8.580;2022-07-19T03:09:29;7.13;;;3.73;;
11245;SDS011;59870;50.106;8.580;2022-07-19T03:11:57;4.03;;;3.03;;
11245;SDS011;59870;50.106;8.580;2022-07-19T03:14:24;4.70;;;3.53;;
11245;SDS011;59870;50.106;8.580;2022-07-19T03:16:52;6.23;;;3.80;;
11245;SDS011;59870;50.106;8.580;2022-07-19T03:19:19;4.10;;;3.70;;
11245;SDS011;59870;50.106;8.580;2022-07-19T03:21:46;4.83;;;3.40;;
11245;SDS011;59870;50.106;8.580;2022-07-19T03:24:14;7.40;;;3.57;;
11245;SDS011;59870;50.106;8.580;2022-07-19T03:29:42;6.60;;;3.90;;
11245;SDS011;59870;50.106;8.580;2022-07-19T03:32:45;4.13;;;3.20;;
11245;SDS011;59870;50.106;8.580;2022-07-19T03:35:13;3.70;;;3.07;;
11245;SDS011;59870;50.106;8.580;2022-07-19T03:37:40;3.90;;;2.93;;
11245;SDS011;59870;50.106;8.580;2022-07-19T03:40:08;6.60;;;3.27;;
11245;SDS011;59870;50.106;8.580;2022-07-19T03:42:36;4.60;;;3.00;;
11245;SDS011;59870;50.106;8.580;2022-07-19T03:45:03;8.83;;;3.70;;
11245;SDS011;59870;50.106;8.580;2022-07-19T03:47:31;4.30;;;3.50;;
11245;SDS011;59870;50.106;8.580;2022-07-19T03:49:59;4.83;;;2.90;;
11245;SDS011;59870;50.106;8.580;2022-07-19T03:52:26;6.97;;;2.70;;
11245;SDS011;59870;50.106;8.580;2022-07-19T03:54:53;3.87;;;2.90;;
11245;SDS011;59870;50.106;8.580;2022-07-19T03:57:21;5.43;;;3.43;;
11245;SDS011;59870;50.106;8.580;2022-07-19T03:59:48;6.93;;;3.27;;
11245;SDS011;59870;50.106;8.580;2022-07-19T04:02:16;3.53;;;3.20;;
11245;SDS011;59870;50.106;8.580;2022-07-19T04:04:43;4.10;;;3.17;;
11245;SDS011;59870;50.106;8.580;2022-07-19T04:07:10;5.93;;;3.63;;
11245;SDS011;59870;50.106;8.580;2022-07-19T04:09:38;9.93;;;3.27;;
11245;SDS011;59870;50.106;8.580;2022-07-19T04:12:05;6.30;;;3.17;;
11245;SDS011;59870;50.106;8.580;2022-07-19T04:14:33;7.13;;;3.10;;
11245;SDS011;59870;50.106;8.580;2022-07-19T04:17:00;3.63;;;3.30;;
11245;SDS011;59870;50.106;8.580;2022-07-19T04:19:31;7.13;;;3.87;;
11245;SDS011;59870;50.106;8.580;2022-07-19T04:21:58;9.07;;;3.30;;
11245;SDS011;59870;50.106;8.580;2022-07-19T04:24:26;3.80;;;3.50;;
11245;SDS011;59870;50.106;8.580;2022-07-19T04:26:54;3.13;;;2.83;;
11245;SDS011;59870;50.106;8.580;2022-07-19T04:29:21;5.60;;;3.60;;
11245;SDS011;59870;50.106;8.580;2022-07-19T04:31:49;2.93;;;2.73;;
11245;SDS011;59870;50.106;8.580;2022-07-19T04:34:17;5.07;;;3.40;;
11245;SDS011;59870;50.106;8.580;2022-07-19T04:36:44;3.90;;;2.77;;
11245;SDS011;59870;50.106;8.580;2022-07-19T04:39:11;11.73;;;3.07;;
11245;SDS011;59870;50.106;8.580;2022-07-19T04:41:39;5.40;;;3.13;;
11245;SDS011;59870;50.106;8.580;2022-07-19T04:44:06;12.13;;;3.30;;
11245;SDS011;59870;50.106;8.580;2022-07-19T04:46:33;2.93;;;2.67;;
11245;SDS011;59870;50.106;8.580;2022-07-19T04:49:01;6.77;;;3.10;;
11245;SDS011;59870;50.106;8.580;2022-07-19T04:51:28;4.83;;;2.80;;
11245;SDS011;59870;50.106;8.580;2022-07-19T04:53:56;4.07;;;3.00;;
11245;SDS011;59870;50.106;8.580;2022-07-19T04:56:23;4.80;;;3.37;;
11245;SDS011;59870;50.106;8.580;2022-07-19T04:58:50;5.23;;;3.30;;
11245;SDS011;59870;50.106;8.580;2022-07-19T05:01:18;3.50;;;3.20;;
11245;SDS011;59870;50.106;8.580;2022-07-19T05:03:45;7.97;;;3.17;;
11245;SDS011;59870;50.106;8.580;2022-07-19T05:06:13;6.43;;;3.30;;
11245;SDS011;59870;50.106;8.580;2022-07-19T05:08:40;6.03;;;3.13;;
11245;SDS011;59870;50.106;8.580;2022-07-19T05:11:08;3.97;;;3.57;;
11245;SDS011;59870;50.106;8.580;2022-07-19T05:13:35;3.20;;;2.90;;
11245;SDS011;59870;50.106;8.580;2022-07-19T05:16:02;3.57;;;2.93;;
11245;SDS011;59870;50.106;8.580;2022-07-19T05:18:30;5.77;;;3.37;;
11245;SDS011;59870;50.106;8.580;2022-07-19T05:20:57;3.00;;;2.70;;
11245;SDS011;59870;50.106;8.580;2022-07-19T05:23:25;3.07;;;2.80;;
11245;SDS011;59870;50.106;8.580;2022-07-19T05:25:52;4.67;;;3.40;;
11245;SDS011;59870;50.106;8.580;2022-07-19T05:28:20;5.67;;;3.70;;
11245;SDS011;59870;50.106;8.580;2022-07-19T05:30:47;9.23;;;3.30;;
11245;SDS011;59870;50.106;8.580;2022-07-19T05:33:14;5.23;;;4.07;;
11245;SDS011;59870;50.106;8.580;2022-07-19T05:35:44;6.63;;;3.47;;
11245;SDS011;59870;50.106;8.580;2022-07-19T05:38:12;6.90;;;3.47;;
11245;SDS011;59870;50.106;8.580;2022-07-19T05:40:39;3.57;;;3.27;;
11245;SDS011;59870;50.106;8.580;2022-07-19T05:43:07;7.57;;;3.67;;
11245;SDS011;59870;50.106;8.580;2022-07-19T05:45:34;9.90;;;3.70;;
11245;SDS011;59870;50.106;8.580;2022-07-19T05:48:01;4.37;;;3.83;;
11245;SDS011;59870;50.106;8.580;2022-07-19T05:50:29;5.43;;;3.40;;
11245;SDS011;59870;50.106;8.580;2022-07-19T05:52:57;11.43;;;3.87;;
11245;SDS011;59870;50.106;8.580;2022-07-19T05:55:25;3.20;;;2.90;;
11245;SDS011;59870;50.106;8.580;2022-07-19T05:57:53;5.30;;;3.33;;
11245;SDS011;59870;50.106;8.580;2022-07-19T06:00:35;3.67;;;3.23;;
11245;SDS011;59870;50.106;8.580;2022-07-19T06:03:03;4.43;;;3.50;;
11245;SDS011;59870;50.106;8.580;2022-07-19T06:05:30;3.83;;;3.30;;
11245;SDS011;59870;50.106;8.580;2022-07-19T06:07:58;10.97;;;3.10;;
11245;SDS011;59870;50.106;8.580;2022-07-19T06:10:25;11.87;;;3.50;;
11245;SDS011;59870;50.106;8.580;2022-07-19T06:12:52;5.90;;;3.30;;
11245;SDS011;59870;50.106;8.580;2022-07-19T06:15:20;5.37;;;3.40;;
11245;SDS011;59870;50.106;8.580;2022-07-19T06:17:47;9.53;;;3.33;;
11245;SDS011;59870;50.106;8.580;2022-07-19T06:20:14;5.23;;;2.80;;
11245;SDS011;59870;50.106;8.580;2022-07-19T06:22:42;4.57;;;3.27;;
11245;SDS011;59870;50.106;8.580;2022-07-19T06:25:09;7.13;;;3.08;;
11245;SDS011;59870;50.106;8.580;2022-07-19T06:27:36;3.40;;;2.70;;
11245;SDS011;59870;50.106;8.580;2022-07-19T06:30:04;4.40;;;3.07;;
11245;SDS011;59870;50.106;8.580;2022-07-19T06:32:32;8.93;;;3.50;;
11245;SDS011;59870;50.106;8.580;2022-07-19T06:34:59;4.85;;;3.17;;
11245;SDS011;59870;50.106;8.580;2022-07-19T06:37:27;3.10;;;2.90;;
11245;SDS011;59870;50.106;8.580;2022-07-19T06:39:54;5.90;;;3.08;;
11245;SDS011;59870;50.106;8.580;2022-07-19T06:42:21;3.47;;;3.00;;
11245;SDS011;59870;50.106;8.580;2022-07-19T06:44:49;6.03;;;3.08;;
11245;SDS011;59870;50.106;8.580;2022-07-19T06:47:16;5.50;;;3.03;;
11245;SDS011;59870;50.106;8.580;2022-07-19T06:49:44;3.85;;;3.00;;
11245;SDS011;59870;50.106;8.580;2022-07-19T06:52:11;5.60;;;2.97;;
11245;SDS011;59870;50.106;8.580;2022-07-19T06:54:40;3.40;;;2.83;;
11245;SDS011;59870;50.106;8.580;2022-07-19T06:57:08;5.88;;;2.95;;
11245;SDS011;59870;50.106;8.580;2022-07-19T06:59:45;6.10;;;2.80;;
11245;SDS011;59870;50.106;8.580;2022-07-19T07:02:13;2.80;;;2.58;;
11245;SDS011;59870;50.106;8.580;2022-07-19T07:04:40;4.80;;;3.17;;
11245;SDS011;59870;50.106;8.580;2022-07-19T07:07:12;5.57;;;2.67;;
11245;SDS011;59870;50.106;8.580;2022-07-19T07:09:40;3.03;;;2.60;;
11245;SDS011;59870;50.106;8.580;2022-07-19T07:12:08;5.50;;;2.92;;
11245;SDS011;59870;50.106;8.580;2022-07-19T07:14:36;5.13;;;2.65;;
11245;SDS011;59870;50.106;8.580;2022-07-19T07:17:03;6.68;;;3.22;;
11245;SDS011;59870;50.106;8.580;2022-07-19T07:19:31;2.75;;;2.55;;
11245;SDS011;59870;50.106;8.580;2022-07-19T07:21:59;3.55;;;2.70;;
11245;SDS011;59870;50.106;8.580;2022-07-19T07:24:28;3.05;;;2.75;;
11245;SDS011;59870;50.106;8.580;2022-07-19T07:26:55;3.33;;;2.67;;
11245;SDS011;59870;50.106;8.580;2022-07-19T07:29:23;3.80;;;2.50;;
11245;SDS011;59870;50.106;8.580;2022-07-19T07:31:50;4.65;;;2.00;;
11245;SDS011;59870;50.106;8.580;2022-07-19T07:34:18;2.75;;;2.55;;
11245;SDS011;59870;50.106;8.580;2022-07-19T07:36:45;10.10;;;3.13;;
11245;SDS011;59870;50.106;8.580;2022-07-19T07:39:13;7.55;;;3.03;;
11245;SDS011;59870;50.106;8.580;2022-07-19T07:41:41;7.38;;;2.45;;
11245;SDS011;59870;50.106;8.580;2022-07-19T07:44:21;4.13;;;2.40;;
11245;SDS011;59870;50.106;8.580;2022-07-19T07:46:49;4.43;;;2.55;;
11245;SDS011;59870;50.106;8.580;2022-07-19T07:49:16;5.07;;;2.78;;
11245;SDS011;59870;50.106;8.580;2022-07-19T07:51:44;6.57;;;2.60;;
11245;SDS011;59870;50.106;8.580;2022-07-19T07:54:12;5.05;;;2.85;;
11245;SDS011;59870;50.106;8.580;2022-07-19T07:56:40;6.47;;;2.80;;
11245;SDS011;59870;50.106;8.580;2022-07-19T07:59:08;5.03;;;2.50;;
11245;SDS011;59870;50.106;8.580;2022-07-19T08:01:36;2.65;;;2.38;;
11245;SDS011;59870;50.106;8.580;2022-07-19T08:04:05;2.88;;;2.60;;
11245;SDS011;59870;50.106;8.580;2022-07-19T08:06:33;9.43;;;2.58;;
11245;SDS011;59870;50.106;8.580;2022-07-19T08:09:00;4.15;;;2.90;;
11245;SDS011;59870;50.106;8.580;2022-07-19T08:11:27;4.03;;;2.22;;
11245;SDS011;59870;50.106;8.580;2022-07-19T08:13:55;3.20;;;2.33;;
11245;SDS011;59870;50.106;8.580;2022-07-19T08:16:22;4.97;;;3.13;;
11245;SDS011;59870;50.106;8.580;2022-07-19T08:18:50;2.92;;;2.70;;
11245;SDS011;59870;50.106;8.580;2022-07-19T08:21:17;2.83;;;2.42;;
11245;SDS011;59870;50.106;8.580;2022-07-19T08:23:44;9.55;;;2.83;;
11245;SDS011;59870;50.106;8.580;2022-07-19T08:26:12;3.50;;;2.20;;
11245;SDS011;59870;50.106;8.580;2022-07-19T08:28:39;5.00;;;3.05;;
11245;SDS011;59870;50.106;8.580;2022-07-19T08:31:33;7.38;;;3.30;;
11245;SDS011;59870;50.106;8.580;2022-07-19T08:34:19;7.47;;;2.47;;
11245;SDS011;59870;50.106;8.580;2022-07-19T08:36:47;5.88;;;2.40;;
11245;SDS011;59870;50.106;8.580;2022-07-19T08:39:14;5.80;;;2.38;;
11245;SDS011;59870;50.106;8.580;2022-07-19T08:41:44;4.03;;;2.30;;
11245;SDS011;59870;50.106;8.580;2022-07-19T08:44:23;2.67;;;2.47;;
11245;SDS011;59870;50.106;8.580;2022-07-19T08:46:50;2.42;;;2.30;;
11245;SDS011;59870;50.106;8.580;2022-07-19T08:49:18;3.00;;;2.75;;
11245;SDS011;59870;50.106;8.580;2022-07-19T08:51:46;7.30;;;2.30;;
11245;SDS011;59870;50.106;8.580;2022-07-19T08:54:15;4.07;;;2.50;;
11245;SDS011;59870;50.106;8.580;2022-07-19T08:56:42;5.07;;;2.67;;
11245;SDS011;59870;50.106;8.580;2022-07-19T08:59:28;3.47;;;2.42;;
11245;SDS011;59870;50.106;8.580;2022-07-19T09:01:57;7.35;;;2.58;;
11245;SDS011;59870;50.106;8.580;2022-07-19T09:04:25;2.60;;;2.40;;
11245;SDS011;59870;50.106;8.580;2022-07-19T09:06:55;4.00;;;2.50;;
11245;SDS011;59870;50.106;8.580;2022-07-19T09:09:24;8.13;;;2.88;;
11245;SDS011;59870;50.106;8.580;2022-07-19T09:11:53;4.57;;;2.83;;
11245;SDS011;59870;50.106;8.580;2022-07-19T09:19:36;8.82;;;2.80;;
11245;SDS011;59870;50.106;8.580;2022-07-19T09:22:09;6.07;;;2.45;;
11245;SDS011;59870;50.106;8.580;2022-07-19T09:24:45;3.80;;;2.30;;
11245;SDS011;59870;50.106;8.580;2022-07-19T09:29:56;5.07;;;2.70;;
11245;SDS011;59870;50.106;8.580;2022-07-19T09:32:26;5.40;;;2.42;;
11245;SDS011;59870;50.106;8.580;2022-07-19T09:34:55;7.15;;;2.65;;
11245;SDS011;59870;50.106;8.580;2022-07-19T09:37:29;3.35;;;2.60;;
11245;SDS011;59870;50.106;8.580;2022-07-19T09:39:59;6.88;;;2.40;;
11245;SDS011;59870;50.106;8.580;2022-07-19T09:45:08;7.38;;;2.72;;
11245;SDS011;59870;50.106;8.580;2022-07-19T09:47:45;3.25;;;2.63;;
11245;SDS011;59870;50.106;8.580;2022-07-19T09:50:14;6.85;;;2.60;;
11245;SDS011;59870;50.106;8.580;2022-07-19T09:52:45;3.50;;;2.10;;
11245;SDS011;59870;50.106;8.580;2022-07-19T09:55:15;2.92;;;2.35;;
11245;SDS011;59870;50.106;8.580;2022-07-19T09:57:44;5.15;;;2.30;;
11245;SDS011;59870;50.106;8.580;2022-07-19T10:00:15;3.63;;;2.45;;
11245;SDS011;59870;50.106;8.580;2022-07-19T10:02:49;5.55;;;2.85;;
11245;SDS011;59870;50.106;8.580;2022-07-19T10:05:18;5.32;;;2.80;;
11245;SDS011;59870;50.106;8.580;2022-07-19T10:07:46;3.90;;;2.30;;
11245;SDS011;59870;50.106;8.580;2022-07-19T10:10:16;8.80;;;2.72;;
11245;SDS011;59870;50.106;8.580;2022-07-19T10:12:46;2.85;;;2.20;;
11245;SDS011;59870;50.106;8.580;2022-07-19T10:15:15;4.85;;;2.40;;
11245;SDS011;59870;50.106;8.580;2022-07-19T10:17:54;2.97;;;2.30;;
11245;SDS011;59870;50.106;8.580;2022-07-19T10:20:47;10.80;;;2.40;;
11245;SDS011;59870;50.106;8.580;2022-07-19T10:23:15;3.60;;;2.15;;
11245;SDS011;59870;50.106;8.580;2022-07-19T10:25:46;3.53;;;2.38;;
11245;SDS011;59870;50.106;8.580;2022-07-19T10:28:33;3.20;;;2.33;;
11245;SDS011;59870;50.106;8.580;2022-07-19T10:31:27;3.58;;;2.00;;
11245;SDS011;59870;50.106;8.580;2022-07-19T10:34:03;6.15;;;2.28;;
11245;SDS011;59870;50.106;8.580;2022-07-19T10:36:36;2.67;;;2.47;;
11245;SDS011;59870;50.106;8.580;2022-07-19T10:39:26;3.58;;;2.38;;
11245;SDS011;59870;50.106;8.580;2022-07-19T10:42:07;2.17;;;1.98;;
11245;SDS011;59870;50.106;8.580;2022-07-19T10:50:10;3.70;;;2.20;;
11245;SDS011;59870;50.106;8.580;2022-07-19T10:52:45;2.35;;;2.05;;
11245;SDS011;59870;50.106;8.580;2022-07-19T10:57:44;2.95;;;2.00;;
11245;SDS011;59870;50.106;8.580;2022-07-19T11:00:17;1.73;;;1.63;;
11245;SDS011;59870;50.106;8.580;2022-07-19T11:02:45;2.15;;;1.67;;
11245;SDS011;59870;50.106;8.580;2022-07-19T11:05:20;3.53;;;1.58;;
11245;SDS011;59870;50.106;8.580;2022-07-19T11:07:52;2.63;;;2.05;;
11245;SDS011;59870;50.106;8.580;2022-07-19T11:10:24;4.75;;;1.90;;
11245;SDS011;59870;50.106;8.580;2022-07-19T11:12:54;2.72;;;2.17;;
11245;SDS011;59870;50.106;8.580;2022-07-19T11:15:23;4.50;;;1.98;;
11245;SDS011;59870;50.106;8.580;2022-07-19T11:17:55;8.00;;;1.98;;
11245;SDS011;59870;50.106;8.580;2022-07-19T11:20:25;7.93;;;2.25;;
11245;SDS011;59870;50.106;8.580;2022-07-19T11:22:55;2.78;;;2.10;;
11245;SDS011;59870;50.106;8.580;2022-07-19T11:25:26;2.40;;;2.20;;
11245;SDS011;59870;50.106;8.580;2022-07-19T11:27:59;2.08;;;1.80;;
11245;SDS011;59870;50.106;8.580;2022-07-19T11:30:31;3.20;;;2.30;;
11245;SDS011;59870;50.106;8.580;2022-07-19T11:33:04;5.00;;;2.08;;
11245;SDS011;59870;50.106;8.580;2022-07-19T11:35:39;3.95;;;2.08;;
11245;SDS011;59870;50.106;8.580;2022-07-19T11:38:06;2.05;;;1.95;;
11245;SDS011;59870;50.106;8.580;2022-07-19T11:40:35;2.42;;;1.98;;
11245;SDS011;59870;50.106;8.580;2022-07-19T11:43:05;3.22;;;2.00;;
11245;SDS011;59870;50.106;8.580;2022-07-19T11:45:45;2.45;;;1.85;;
11245;SDS011;59870;50.106;8.580;2022-07-19T11:48:29;5.20;;;2.47;;
11245;SDS011;59870;50.106;8.580;2022-07-19T11:50:58;4.75;;;1.88;;
11245;SDS011;59870;50.106;8.580;2022-07-19T11:53:48;5.60;;;1.95;;
11245;SDS011;59870;50.106;8.580;2022-07-19T11:56:19;4.50;;;2.30;;
11245;SDS011;59870;50.106;8.580;2022-07-19T11:58:51;2.70;;;2.30;;
11245;SDS011;59870;50.106;8.580;2022-07-19T12:01:33;3.17;;;2.08;;
11245;SDS011;59870;50.106;8.580;2022-07-19T12:04:07;2.92;;;1.63;;
11245;SDS011;59870;50.106;8.580;2022-07-19T12:06:46;6.05;;;2.00;;
11245;SDS011;59870;50.106;8.580;2022-07-19T12:09:16;2.40;;;2.20;;
11245;SDS011;59870;50.106;8.580;2022-07-19T12:11:46;2.10;;;1.95;;
11245;SDS011;59870;50.106;8.580;2022-07-19T12:17:08;3.53;;;2.30;;
11245;SDS011;59870;50.106;8.580;2022-07-19T12:19:38;2.30;;;1.92;;
11245;SDS011;59870;50.106;8.580;2022-07-19T12:24:57;3.33;;;2.00;;
11245;SDS011;59870;50.106;8.580;2022-07-19T12:27:28;4.50;;;2.40;;
11245;SDS011;59870;50.106;8.580;2022-07-19T12:29:55;3.05;;;2.10;;
11245;SDS011;59870;50.106;8.580;2022-07-19T12:32:32;5.25;;;2.50;;
11245;SDS011;59870;50.106;8.580;2022-07-19T12:35:02;13.75;;;3.63;;
11245;SDS011;59870;50.106;8.580;2022-07-19T12:37:32;7.55;;;2.30;;
11245;SDS011;59870;50.106;8.580;2022-07-19T12:45:07;2.63;;;2.20;;
11245;SDS011;59870;50.106;8.580;2022-07-19T12:47:36;3.13;;;2.25;;
11245;SDS011;59870;50.106;8.580;2022-07-19T12:50:04;3.88;;;2.28;;
11245;SDS011;59870;50.106;8.580;2022-07-19T12:52:38;2.40;;;2.20;;
11245;SDS011;59870;50.106;8.580;2022-07-19T12:55:06;3.42;;;2.20;;
11245;SDS011;59870;50.106;8.580;2022-07-19T12:57:40;6.53;;;2.50;;
11245;SDS011;59870;50.106;8.580;2022-07-19T13:00:08;2.30;;;2.10;;
11245;SDS011;59870;50.106;8.580;2022-07-19T13:02:36;4.32;;;2.38;;
11245;SDS011;59870;50.106;8.580;2022-07-19T13:05:04;2.88;;;2.08;;
11245;SDS011;59870;50.106;8.580;2022-07-19T13:07:31;4.18;;;2.22;;
11245;SDS011;59870;50.106;8.580;2022-07-19T13:09:59;2.30;;;2.20;;
11245;SDS011;59870;50.106;8.580;2022-07-19T13:12:26;4.40;;;2.47;;
11245;SDS011;59870;50.106;8.580;2022-07-19T13:14:53;3.40;;;2.38;;
11245;SDS011;59870;50.106;8.580;2022-07-19T13:17:21;2.28;;;2.08;;
11245;SDS011;59870;50.106;8.580;2022-07-19T13:19:49;2.67;;;2.33;;
11245;SDS011;59870;50.106;8.580;2022-07-19T13:22:21;3.25;;;2.15;;
11245;SDS011;59870;50.106;8.580;2022-07-19T13:24:48;5.07;;;2.20;;
11245;SDS011;59870;50.106;8.580;2022-07-19T13:27:35;4.45;;;2.83;;
11245;SDS011;59870;50.106;8.580;2022-07-19T13:30:03;2.88;;;2.58;;
11245;SDS011;59870;50.106;8.580;2022-07-19T13:32:31;5.03;;;3.08;;
11245;SDS011;59870;50.106;8.580;2022-07-19T13:34:59;3.70;;;2.97;;
11245;SDS011;59870;50.106;8.580;2022-07-19T13:37:26;5.95;;;3.28;;
11245;SDS011;59870;50.106;8.580;2022-07-19T13:39:53;3.13;;;2.78;;
11245;SDS011;59870;50.106;8.580;2022-07-19T13:42:21;3.58;;;2.60;;
11245;SDS011;59870;50.106;8.580;2022-07-19T13:44:48;5.50;;;2.47;;
11245;SDS011;59870;50.106;8.580;2022-07-19T13:47:16;3.88;;;2.42;;
11245;SDS011;59870;50.106;8.580;2022-07-19T13:49:43;11.55;;;2.72;;
11245;SDS011;59870;50.106;8.580;2022-07-19T13:52:11;4.15;;;2.70;;
11245;SDS011;59870;50.106;8.580;2022-07-19T13:54:41;2.92;;;2.40;;
11245;SDS011;59870;50.106;8.580;2022-07-19T13:57:09;5.75;;;2.47;;
11245;SDS011;59870;50.106;8.580;2022-07-19T13:59:36;3.17;;;2.22;;
11245;SDS011;59870;50.106;8.580;2022-07-19T14:02:04;3.58;;;2.50;;
11245;SDS011;59870;50.106;8.580;2022-07-19T14:04:31;2.40;;;2.30;;
11245;SDS011;59870;50.106;8.580;2022-07-19T14:06:59;3.30;;;2.67;;
11245;SDS011;59870;50.106;8.580;2022-07-19T14:09:26;7.97;;;3.10;;
11245;SDS011;59870;50.106;8.580;2022-07-19T14:11:54;4.38;;;2.80;;
11245;SDS011;59870;50.106;8.580;2022-07-19T14:14:21;4.95;;;2.72;;
11245;SDS011;59870;50.106;8.580;2022-07-19T14:16:49;5.03;;;2.72;;
11245;SDS011;59870;50.106;8.580;2022-07-19T14:19:16;3.05;;;2.67;;
11245;SDS011;59870;50.106;8.580;2022-07-19T14:21:43;4.45;;;2.90;;
11245;SDS011;59870;50.106;8.580;2022-07-19T14:24:11;3.05;;;2.35;;
11245;SDS011;59870;50.106;8.580;2022-07-19T14:26:38;3.33;;;2.58;;
11245;SDS011;59870;50.106;8.580;2022-07-19T14:29:06;6.70;;;2.50;;
11245;SDS011;59870;50.106;8.580;2022-07-19T14:31:33;5.95;;;2.50;;
11245;SDS011;59870;50.106;8.580;2022-07-19T14:34:07;6.22;;;2.70;;
11245;SDS011;59870;50.106;8.580;2022-07-19T14:36:55;2.60;;;2.38;;
11245;SDS011;59870;50.106;8.580;2022-07-19T14:39:22;2.60;;;2.40;;
11245;SDS011;59870;50.106;8.580;2022-07-19T14:41:49;2.90;;;2.70;;
11245;SDS011;59870;50.106;8.580;2022-07-19T14:44:17;3.25;;;2.45;;
11245;SDS011;59870;50.106;8.580;2022-07-19T14:46:45;3.33;;;2.22;;
11245;SDS011;59870;50.106;8.580;2022-07-19T14:49:12;2.75;;;2.28;;
11245;SDS011;59870;50.106;8.580;2022-07-19T14:51:40;3.85;;;2.50;;
11245;SDS011;59870;50.106;8.580;2022-07-19T14:54:07;2.80;;;2.40;;
11245;SDS011;59870;50.106;8.580;2022-07-19T14:56:41;5.15;;;2.85;;
11245;SDS011;59870;50.106;8.580;2022-07-19T14:59:09;4.10;;;2.70;;
11245;SDS011;59870;50.106;8.580;2022-07-19T15:01:36;3.40;;;2.70;;
11245;SDS011;59870;50.106;8.580;2022-07-19T15:04:04;2.58;;;2.22;;
11245;SDS011;59870;50.106;8.580;2022-07-19T15:06:31;5.03;;;2.80;;
11245;SDS011;59870;50.106;8.580;2022-07-19T15:09:06;4.65;;;2.85;;
11245;SDS011;59870;50.106;8.580;2022-07-19T15:11:34;3.35;;;2.60;;
11245;SDS011;59870;50.106;8.580;2022-07-19T15:14:02;3.33;;;2.50;;
11245;SDS011;59870;50.106;8.580;2022-07-19T15:16:29;2.72;;;2.50;;
11245;SDS011;59870;50.106;8.580;2022-07-19T15:18:57;2.72;;;2.33;;
11245;SDS011;59870;50.106;8.580;2022-07-19T15:21:24;3.10;;;2.78;;
11245;SDS011;59870;50.106;8.580;2022-07-19T15:23:52;2.58;;;2.40;;
11245;SDS011;59870;50.106;8.580;2022-07-19T15:26:27;2.63;;;2.42;;
11245;SDS011;59870;50.106;8.580;2022-07-19T15:28:55;3.55;;;2.83;;
11245;SDS011;59870;50.106;8.580;2022-07-19T15:31:23;4.78;;;2.50;;
11245;SDS011;59870;50.106;8.580;2022-07-19T15:33:51;6.13;;;2.60;;